This is the latest recevied weather packets stored in our database for station/object DJ2DS-13. If no packets are shown the sender has not sent any weather packets the latest 1 day(s).
| Time | Temp. | Humidity | Pressure | Rain* | Wind** | Luminosity | Snow |
|---|---|---|---|---|---|---|---|
| 1777979735 | 11.67° C | 77% | 1010.7 hPa | 0 mm | 0.89 m/s, 52° | 362 W/m² | - |
| 1777979435 | 11.67° C | 77% | 1010.6 hPa | 0 mm | 0.89 m/s, 17° | 375 W/m² | - |
| 1777979135 | 11.67° C | 77% | 1010.7 hPa | 0 mm | 1.34 m/s, 11° | 389 W/m² | - |
| 1777978834 | 11.67° C | 78% | 1010.7 hPa | 0 mm | 1.79 m/s, 35° | 288 W/m² | - |
| 1777978534 | 11.67° C | 78% | 1010.7 hPa | 0 mm | 0.89 m/s, 17° | 331 W/m² | - |
| 1777978233 | 11.67° C | 78% | 1010.7 hPa | 0 mm | 1.79 m/s, 41° | 364 W/m² | - |
| 1777977932 | 11.67° C | 78% | 1010.7 hPa | 0 mm | 1.34 m/s, 45° | 376 W/m² | - |
| 1777977632 | 11.67° C | 79% | 1010.6 hPa | 0 mm | 1.34 m/s, 31° | 380 W/m² | - |
| 1777977333 | 11.67° C | 78% | 1010.7 hPa | 0 mm | 1.79 m/s, 25° | 343 W/m² | - |
| 1777977031 | 11.67° C | 80% | 1010.7 hPa | 0 mm | 1.34 m/s, 14° | 369 W/m² | - |
| 1777976732 | 11.11° C | 80% | 1010.7 hPa | 0 mm | 0.89 m/s, 20° | 361 W/m² | - |
| 1777976430 | 11.11° C | 80% | 1010.8 hPa | 0 mm | 0.89 m/s, 30° | 352 W/m² | - |
| 1777976130 | 11.11° C | 80% | 1010.9 hPa | 0 mm | 0.89 m/s, 17° | 288 W/m² | - |
| 1777975829 | 11.11° C | 81% | 1010.9 hPa | 0 mm | 0.89 m/s, 35° | 260 W/m² | - |
| 1777975530 | 11.11° C | 82% | 1010.9 hPa | 0 mm | 0.89 m/s, 17° | 292 W/m² | - |
| 1777975230 | 10.56° C | 83% | 1011 hPa | 0 mm | 0.89 m/s, 11° | 329 W/m² | - |
| 1777974929 | 10.56° C | 82% | 1011 hPa | 0 mm | 0.89 m/s, 30° | 306 W/m² | - |
| 1777974629 | 10.56° C | 83% | 1011.1 hPa | 0 mm | 0.45 m/s, 0° | 257 W/m² | - |
| 1777974327 | 10.56° C | 83% | 1011.2 hPa | 0 mm | 1.34 m/s, 48° | 223 W/m² | - |
| 1777974027 | 10.56° C | 83% | 1011.2 hPa | 0 mm | 0.89 m/s, 56° | 216 W/m² | - |
| 1777973727 | 10° C | 84% | 1011.3 hPa | 0 mm | 0.89 m/s, 48° | 227 W/m² | - |
| 1777973426 | 10° C | 84% | 1011.4 hPa | 0 mm | 0.89 m/s, 23° | 197 W/m² | - |
| 1777973125 | 10° C | 84% | 1011.4 hPa | 0 mm | 1.34 m/s, 61° | 179 W/m² | - |
| 1777972827 | 10° C | 84% | 1011.5 hPa | 0 mm | 0.89 m/s, 38° | 155 W/m² | - |
| 1777972524 | 10° C | 84% | 1011.4 hPa | 0 mm | 0.89 m/s, 38° | 150 W/m² | - |
* Rain latest hour (hover to see other rain measurements)
** Current wind speed in m/s (hover to see current wind gust speed)